sensor_id;sensor_type;location;lat;lon;timestamp;pressure;altitude;pressure_sealevel;temperature;humidity
74427;BME280;62859;53.906;27.430;2023-06-24T00:01:52;1007.1;;;25.2;41.5
74427;BME280;62859;53.906;27.430;2023-06-24T00:07:08;1007.1;;;25.2;41.7
74427;BME280;62859;53.906;27.430;2023-06-24T00:12:30;1007.1;;;25.2;41.7
74427;BME280;62859;53.906;27.430;2023-06-24T00:17:08;1007.2;;;25.3;41.7
74427;BME280;62859;53.906;27.430;2023-06-24T00:21:52;1007.2;;;25.3;41.6
74427;BME280;62859;53.906;27.430;2023-06-24T00:27:24;1007.2;;;25.4;41.6
74427;BME280;62859;53.906;27.430;2023-06-24T00:32:00;1007.2;;;25.4;41.7
74427;BME280;62859;53.906;27.430;2023-06-24T00:37:00;1007.3;;;25.4;41.9
74427;BME280;62859;53.906;27.430;2023-06-24T00:42:38;1007.3;;;25.4;42.3
74427;BME280;62859;53.906;27.430;2023-06-24T00:47:14;1007.2;;;25.4;42.7
74427;BME280;62859;53.906;27.430;2023-06-24T00:51:58;1007.2;;;25.4;42.7
74427;BME280;62859;53.906;27.430;2023-06-24T00:57:14;1007.2;;;25.3;42.8
74427;BME280;62859;53.906;27.430;2023-06-24T01:01:54;1007.2;;;25.3;43.1
74427;BME280;62859;53.906;27.430;2023-06-24T01:06:52;1007.2;;;25.2;43.3
74427;BME280;62859;53.906;27.430;2023-06-24T01:12:12;1007.2;;;25.2;43.3
74427;BME280;62859;53.906;27.430;2023-06-24T01:17:39;1007.2;;;25.2;43.6
74427;BME280;62859;53.906;27.430;2023-06-24T01:22:31;1007.2;;;25.2;43.7
74427;BME280;62859;53.906;27.430;2023-06-24T01:27:15;1007.3;;;25.1;43.9
74427;BME280;62859;53.906;27.430;2023-06-24T01:32:06;1007.2;;;25.1;44
74427;BME280;62859;53.906;27.430;2023-06-24T01:37:05;1007.3;;;25.1;44.1
74427;BME280;62859;53.906;27.430;2023-06-24T01:42:03;1007.3;;;25;44.1
74427;BME280;62859;53.906;27.430;2023-06-24T01:47:40;1007.2;;;25;44.1
74427;BME280;62859;53.906;27.430;2023-06-24T01:51:52;1007.2;;;24.9;44.2
74427;BME280;62859;53.906;27.430;2023-06-24T01:57:18;1007.2;;;24.9;44.2
74427;BME280;62859;53.906;27.430;2023-06-24T02:02:40;1007.2;;;24.9;44.5
74427;BME280;62859;53.906;27.430;2023-06-24T02:07:30;1007.3;;;24.9;44.7
74427;BME280;62859;53.906;27.430;2023-06-24T02:12:16;1007.3;;;24.8;44.9
74427;BME280;62859;53.906;27.430;2023-06-24T02:17:30;1007.3;;;24.8;45.1
74427;BME280;62859;53.906;27.430;2023-06-24T02:22:38;1007.3;;;24.8;45
74427;BME280;62859;53.906;27.430;2023-06-24T02:27:40;1007.4;;;24.7;45.1
74427;BME280;62859;53.906;27.430;2023-06-24T02:32:40;1007.5;;;24.7;45.1
74427;BME280;62859;53.906;27.430;2023-06-24T02:37:40;1007.6;;;24.7;45.1
74427;BME280;62859;53.906;27.430;2023-06-24T02:41:52;1007.6;;;24.8;45.1
74427;BME280;62859;53.906;27.430;2023-06-24T02:47:12;1007.6;;;24.7;45.2
74427;BME280;62859;53.906;27.430;2023-06-24T02:52:30;1007.6;;;24.7;45.2
74427;BME280;62859;53.906;27.430;2023-06-24T02:57:40;1007.6;;;24.7;45.3
74427;BME280;62859;53.906;27.430;2023-06-24T03:02:24;1007.6;;;24.6;45.6
74427;BME280;62859;53.906;27.430;2023-06-24T03:07:40;1007.7;;;24.6;45.9
74427;BME280;62859;53.906;27.430;2023-06-24T03:12:40;1007.8;;;24.6;46.1
74427;BME280;62859;53.906;27.430;2023-06-24T03:16:52;1007.8;;;24.5;46.4
74427;BME280;62859;53.906;27.430;2023-06-24T03:22:02;1007.9;;;24.5;46.5
74427;BME280;62859;53.906;27.430;2023-06-24T03:27:12;1007.8;;;24.6;46.6
74427;BME280;62859;53.906;27.430;2023-06-24T03:32:38;1007.7;;;24.5;46.7
74427;BME280;62859;53.906;27.430;2023-06-24T03:37:22;1007.7;;;24.5;46.7
74427;BME280;62859;53.906;27.430;2023-06-24T03:42:02;1007.6;;;24.5;46.7
74427;BME280;62859;53.906;27.430;2023-06-24T03:47:14;1007.6;;;24.5;46.7
74427;BME280;62859;53.906;27.430;2023-06-24T03:52:00;1007.6;;;24.5;46.6
74427;BME280;62859;53.906;27.430;2023-06-24T03:57:36;1007.6;;;24.5;46.5
74427;BME280;62859;53.906;27.430;2023-06-24T04:02:12;1007.5;;;24.6;46.4
74427;BME280;62859;53.906;27.430;2023-06-24T04:07:16;1007.5;;;24.7;46.2
74427;BME280;62859;53.906;27.430;2023-06-24T04:12:22;1007.5;;;24.7;46.3
74427;BME280;62859;53.906;27.430;2023-06-24T04:17:38;1007.5;;;24.7;46.2
74427;BME280;62859;53.906;27.430;2023-06-24T04:22:00;1007.6;;;24.7;46
74427;BME280;62859;53.906;27.430;2023-06-24T04:27:07;1007.7;;;24.8;46.2
74427;BME280;62859;53.906;27.430;2023-06-24T04:32:10;1007.7;;;24.9;46.4
74427;BME280;62859;53.906;27.430;2023-06-24T04:37:04;1007.8;;;24.9;46.4
74427;BME280;62859;53.906;27.430;2023-06-24T04:41:52;1007.8;;;25;46.4
74427;BME280;62859;53.906;27.430;2023-06-24T04:47:14;1008;;;25;46.3
74427;BME280;62859;53.906;27.430;2023-06-24T04:52:36;1008.1;;;25;46.3
74427;BME280;62859;53.906;27.430;2023-06-24T04:56:52;1008.1;;;25.1;46.1
74427;BME280;62859;53.906;27.430;2023-06-24T05:01:52;1008.1;;;25.1;46.1
74427;BME280;62859;53.906;27.430;2023-06-24T05:07:40;1008.1;;;25.1;46
74427;BME280;62859;53.906;27.430;2023-06-24T05:12:10;1008;;;25.1;45.9
74427;BME280;62859;53.906;27.430;2023-06-24T05:17:08;1008.1;;;25.1;45.8
74427;BME280;62859;53.906;27.430;2023-06-24T05:21:52;1008.1;;;25.1;45.8
74427;BME280;62859;53.906;27.430;2023-06-24T05:27:24;1008;;;25.2;45.4
74427;BME280;62859;53.906;27.430;2023-06-24T05:32:14;1008;;;25.3;45.1
74427;BME280;62859;53.906;27.430;2023-06-24T05:37:06;1008;;;25.2;45.1
74427;BME280;62859;53.906;27.430;2023-06-24T05:42:40;1007.9;;;25.3;44.8
74427;BME280;62859;53.906;27.430;2023-06-24T05:47:24;1007.9;;;25.2;44.4
74427;BME280;62859;53.906;27.430;2023-06-24T05:52:16;1008;;;25.3;44.3
74427;BME280;62859;53.906;27.430;2023-06-24T05:57:14;1007.9;;;25.3;44.4
74427;BME280;62859;53.906;27.430;2023-06-24T06:01:52;1007.9;;;25.4;44.1
74427;BME280;62859;53.906;27.430;2023-06-24T06:07:08;1007.8;;;25.5;43.9
74427;BME280;62859;53.906;27.430;2023-06-24T06:12:40;1007.8;;;25.6;43.6
74427;BME280;62859;53.906;27.430;2023-06-24T06:17:08;1007.9;;;25.7;42.9
74427;BME280;62859;53.906;27.430;2023-06-24T06:22:40;1007.9;;;25.8;42.4
74427;BME280;62859;53.906;27.430;2023-06-24T06:27:38;1007.9;;;26;41.9
74427;BME280;62859;53.906;27.430;2023-06-24T06:32:10;1007.9;;;26.1;41.2
74427;BME280;62859;53.906;27.430;2023-06-24T06:36:52;1007.8;;;26.2;40.7
74427;BME280;62859;53.906;27.430;2023-06-24T06:42:30;1007.9;;;26.3;40.5
74427;BME280;62859;53.906;27.430;2023-06-24T06:47:38;1007.9;;;26.4;40.7
74427;BME280;62859;53.906;27.430;2023-06-24T06:52:40;1007.9;;;26.5;40.6
74427;BME280;62859;53.906;27.430;2023-06-24T06:57:38;1007.9;;;26.6;40.6
74427;BME280;62859;53.906;27.430;2023-06-24T07:02:38;1007.9;;;26.8;40.8
74427;BME280;62859;53.906;27.430;2023-06-24T07:06:52;1008;;;27;40
74427;BME280;62859;53.906;27.430;2023-06-24T07:12:00;1008;;;27.1;39.5
74427;BME280;62859;53.906;27.430;2023-06-24T07:17:30;1008;;;27.2;39.3
74427;BME280;62859;53.906;27.430;2023-06-24T07:22:38;1008.1;;;27.4;38.5
74427;BME280;62859;53.906;27.430;2023-06-24T07:27:22;1008.1;;;27.5;38
74427;BME280;62859;53.906;27.430;2023-06-24T07:32:26;1008.1;;;27.6;38
74427;BME280;62859;53.906;27.430;2023-06-24T07:37:38;1008.1;;;27.6;37.7
74427;BME280;62859;53.906;27.430;2023-06-24T07:41:58;1008.1;;;27.7;37.3
74427;BME280;62859;53.906;27.430;2023-06-24T07:46:52;1008.1;;;27.8;37.2
74427;BME280;62859;53.906;27.430;2023-06-24T07:52:12;1008.2;;;27.9;36.8
74427;BME280;62859;53.906;27.430;2023-06-24T07:57:38;1008.3;;;28.1;36.8
74427;BME280;62859;53.906;27.430;2023-06-24T08:02:22;1008.2;;;28.2;36.4
74427;BME280;62859;53.906;27.430;2023-06-24T08:07:38;1008.3;;;28.3;36
74427;BME280;62859;53.906;27.430;2023-06-24T08:12:12;1008.3;;;28.5;35.6
74427;BME280;62859;53.906;27.430;2023-06-24T08:16:52;1008.2;;;28.7;34.8
74427;BME280;62859;53.906;27.430;2023-06-24T08:22:38;1008.2;;;28.9;34
74427;BME280;62859;53.906;27.430;2023-06-24T08:27:12;1008.2;;;29.2;33.2
74427;BME280;62859;53.906;27.430;2023-06-24T08:32:06;1008.3;;;29.5;32.3
74427;BME280;62859;53.906;27.430;2023-06-24T08:37:22;1008.2;;;30;30.7
74427;BME280;62859;53.906;27.430;2023-06-24T08:42:38;1008.2;;;30.5;29.9
74427;BME280;62859;53.906;27.430;2023-06-24T08:46:52;1008.3;;;31;29.2
74427;BME280;62859;53.906;27.430;2023-06-24T08:51:53;1008.3;;;31.5;27.8
74427;BME280;62859;53.906;27.430;2023-06-24T08:57:22;1008.3;;;31.9;26.6
74427;BME280;62859;53.906;27.430;2023-06-24T09:02:12;1008.3;;;32.2;25.8
74427;BME280;62859;53.906;27.430;2023-06-24T09:07:06;1008.3;;;32.6;26.2
74427;BME280;62859;53.906;27.430;2023-06-24T09:12:23;1008.4;;;33;26
74427;BME280;62859;53.906;27.430;2023-06-24T09:17:28;1008.4;;;33.4;26.3
74427;BME280;62859;53.906;27.430;2023-06-24T09:22:00;1008.4;;;33.7;26.5
74427;BME280;62859;53.906;27.430;2023-06-24T09:26:58;1008.5;;;33.9;25.8
74427;BME280;62859;53.906;27.430;2023-06-24T09:32:36;1008.4;;;34.2;24.8
74427;BME280;62859;53.906;27.430;2023-06-24T09:37:22;1008.4;;;34.5;24.3
74427;BME280;62859;53.906;27.430;2023-06-24T09:41:59;1008.4;;;34.7;25.1
74427;BME280;62859;53.906;27.430;2023-06-24T09:47:12;1008.4;;;34.9;24.4
74427;BME280;62859;53.906;27.430;2023-06-24T09:52:22;1008.4;;;35;23.3
74427;BME280;62859;53.906;27.430;2023-06-24T09:57:06;1008.3;;;35.1;21.8
74427;BME280;62859;53.906;27.430;2023-06-24T10:02:12;1008.3;;;35.1;22
74427;BME280;62859;53.906;27.430;2023-06-24T10:07:14;1008.3;;;35.3;21.5
74427;BME280;62859;53.906;27.430;2023-06-24T10:12:22;1008.2;;;35.6;21.7
74427;BME280;62859;53.906;27.430;2023-06-24T10:17:14;1008.2;;;35.8;21.6
74427;BME280;62859;53.906;27.430;2023-06-24T10:22:12;1008.2;;;35.9;21.4
74427;BME280;62859;53.906;27.430;2023-06-24T10:26:52;1008.2;;;35.9;21.1
74427;BME280;62859;53.906;27.430;2023-06-24T10:32:02;1008.2;;;35.9;21
74427;BME280;62859;53.906;27.430;2023-06-24T10:37:38;1008.1;;;36.1;20.3
74427;BME280;62859;53.906;27.430;2023-06-24T10:42:38;1008.2;;;36;20.5
74427;BME280;62859;53.906;27.430;2023-06-24T10:47:22;1008.1;;;36;20.7
74427;BME280;62859;53.906;27.430;2023-06-24T10:52:39;1008.2;;;36.2;20.9
74427;BME280;62859;53.906;27.430;2023-06-24T10:57:28;1008.2;;;36.3;20.9
74427;BME280;62859;53.906;27.430;2023-06-24T11:01:52;1008.1;;;36.3;20.8
74427;BME280;62859;53.906;27.430;2023-06-24T11:07:29;1008.1;;;36.5;20.2
74427;BME280;62859;53.906;27.430;2023-06-24T11:12:39;1008.1;;;36.5;19.5
74427;BME280;62859;53.906;27.430;2023-06-24T11:17:39;1008;;;36.7;19.5
74427;BME280;62859;53.906;27.430;2023-06-24T11:22:39;1008.1;;;37;19.4
74427;BME280;62859;53.906;27.430;2023-06-24T11:27:38;1008.1;;;37.2;19.1
74427;BME280;62859;53.906;27.430;2023-06-24T11:31:52;1008;;;37.2;18.9
74427;BME280;62859;53.906;27.430;2023-06-24T11:36:58;1008;;;37.3;18.6
74427;BME280;62859;53.906;27.430;2023-06-24T11:42:28;1008;;;37.4;18.4
74427;BME280;62859;53.906;27.430;2023-06-24T11:47:39;1008.1;;;37.5;18.9
74427;BME280;62859;53.906;27.430;2023-06-24T11:52:27;1008;;;37.5;19.2
74427;BME280;62859;53.906;27.430;2023-06-24T11:58:00;1008;;;37.6;19
74427;BME280;62859;53.906;27.430;2023-06-24T12:02:38;1007.9;;;37.8;18.9
74427;BME280;62859;53.906;27.430;2023-06-24T12:06:58;1008;;;38;18.8
74427;BME280;62859;53.906;27.430;2023-06-24T12:11:52;1007.9;;;38;19.1
74427;BME280;62859;53.906;27.430;2023-06-24T12:16:52;1007.9;;;38;19.4
74427;BME280;62859;53.906;27.430;2023-06-24T12:22:38;1007.9;;;38;19.2
74427;BME280;62859;53.906;27.430;2023-06-24T12:27:22;1007.9;;;37.5;19.3
74427;BME280;62859;53.906;27.430;2023-06-24T12:32:28;1007.9;;;37;19.7
74427;BME280;62859;53.906;27.430;2023-06-24T12:37:12;1007.9;;;36.7;20.1
74427;BME280;62859;53.906;27.430;2023-06-24T12:41:58;1007.9;;;36.5;20
74427;BME280;62859;53.906;27.430;2023-06-24T12:47:38;1007.8;;;36.1;19.8
74427;BME280;62859;53.906;27.430;2023-06-24T12:51:52;1007.8;;;35.8;20.1
74427;BME280;62859;53.906;27.430;2023-06-24T12:56:52;1007.8;;;35.5;20
74427;BME280;62859;53.906;27.430;2023-06-24T13:02:22;1007.8;;;35.2;20.2
74427;BME280;62859;53.906;27.430;2023-06-24T13:07:38;1007.8;;;35.1;20.2
74427;BME280;62859;53.906;27.430;2023-06-24T13:12:12;1007.8;;;34.9;19.4
74427;BME280;62859;53.906;27.430;2023-06-24T13:16:52;1007.8;;;35;19.1
74427;BME280;62859;53.906;27.430;2023-06-24T13:22:14;1007.8;;;35;19.5
74427;BME280;62859;53.906;27.430;2023-06-24T13:27:12;1007.8;;;35.1;19.7
74427;BME280;62859;53.906;27.430;2023-06-24T13:32:22;1007.8;;;35.2;19.8
74427;BME280;62859;53.906;27.430;2023-06-24T13:37:12;1007.8;;;35.1;19.7
74427;BME280;62859;53.906;27.430;2023-06-24T13:42:38;1007.8;;;35;19.3
74427;BME280;62859;53.906;27.430;2023-06-24T13:46:58;1007.8;;;34.9;19.2
74427;BME280;62859;53.906;27.430;2023-06-24T13:52:14;1007.8;;;35;19.1
74427;BME280;62859;53.906;27.430;2023-06-24T13:57:34;1007.8;;;35;18.8
74427;BME280;62859;53.906;27.430;2023-06-24T14:02:14;1007.7;;;34.9;18.6
74427;BME280;62859;53.906;27.430;2023-06-24T14:07:08;1007.7;;;34.9;18.5
74427;BME280;62859;53.906;27.430;2023-06-24T14:12:12;1007.7;;;34.7;18.4
74427;BME280;62859;53.906;27.430;2023-06-24T14:17:38;1007.7;;;34.6;18.2
74427;BME280;62859;53.906;27.430;2023-06-24T14:22:14;1007.7;;;34.5;17.8
74427;BME280;62859;53.906;27.430;2023-06-24T14:27:12;1007.7;;;34.2;17.7
74427;BME280;62859;53.906;27.430;2023-06-24T14:32:38;1007.7;;;34;17.8
74427;BME280;62859;53.906;27.430;2023-06-24T14:37:22;1007.7;;;34;18.4
74427;BME280;62859;53.906;27.430;2023-06-24T14:42:00;1007.7;;;33.9;18.7
74427;BME280;62859;53.906;27.430;2023-06-24T14:47:00;1007.6;;;33.8;18.3
74427;BME280;62859;53.906;27.430;2023-06-24T14:51:52;1007.6;;;33.8;18.3
74427;BME280;62859;53.906;27.430;2023-06-24T14:57:00;1007.6;;;33.6;18.6
74427;BME280;62859;53.906;27.430;2023-06-24T15:02:14;1007.6;;;33.5;19.1
74427;BME280;62859;53.906;27.430;2023-06-24T15:07:28;1007.6;;;33.4;19.4
74427;BME280;62859;53.906;27.430;2023-06-24T15:12:24;1007.6;;;33.4;19.5
74427;BME280;62859;53.906;27.430;2023-06-24T15:17:24;1007.6;;;33.3;20
74427;BME280;62859;53.906;27.430;2023-06-24T15:22:10;1007.5;;;33.2;19.6
74427;BME280;62859;53.906;27.430;2023-06-24T15:27:40;1007.5;;;33.1;19.6
74427;BME280;62859;53.906;27.430;2023-06-24T15:31:52;1007.5;;;32.9;19.9
74427;BME280;62859;53.906;27.430;2023-06-24T15:37:24;1007.5;;;32.8;20.5
74427;BME280;62859;53.906;27.430;2023-06-24T15:42:24;1007.5;;;32.7;20.9
74427;BME280;62859;53.906;27.430;2023-06-24T15:47:03;1007.5;;;32.5;21.5
74427;BME280;62859;53.906;27.430;2023-06-24T15:52:40;1007.5;;;32.4;22.5
74427;BME280;62859;53.906;27.430;2023-06-24T15:57:08;1007.5;;;32.3;23.7
74427;BME280;62859;53.906;27.430;2023-06-24T16:01:52;1007.5;;;32.1;24.3
74427;BME280;62859;53.906;27.430;2023-06-24T16:07:31;1007.5;;;31.9;24.8
74427;BME280;62859;53.906;27.430;2023-06-24T16:12:40;1007.5;;;31.7;25.1
74427;BME280;62859;53.906;27.430;2023-06-24T16:17:41;1007.5;;;31.6;25.3
74427;BME280;62859;53.906;27.430;2023-06-24T16:22:38;1007.5;;;31.5;25.7
74427;BME280;62859;53.906;27.430;2023-06-24T16:27:39;1007.6;;;31.3;25.9
74427;BME280;62859;53.906;27.430;2023-06-24T16:32:01;1007.6;;;31.2;26
74427;BME280;62859;53.906;27.430;2023-06-24T16:37:01;1007.6;;;31;25.9
74427;BME280;62859;53.906;27.430;2023-06-24T16:42:31;1007.6;;;30.9;25.7
74427;BME280;62859;53.906;27.430;2023-06-24T16:47:41;1007.6;;;30.8;25.8
74427;BME280;62859;53.906;27.430;2023-06-24T16:52:23;1007.7;;;30.7;25.7
74427;BME280;62859;53.906;27.430;2023-06-24T16:57:31;1007.7;;;30.5;25.3
74427;BME280;62859;53.906;27.430;2023-06-24T17:02:41;1007.7;;;30.4;24.8
74427;BME280;62859;53.906;27.430;2023-06-24T17:07:01;1007.8;;;30.2;25
74427;BME280;62859;53.906;27.430;2023-06-24T17:12:01;1007.8;;;30.1;25.3
74427;BME280;62859;53.906;27.430;2023-06-24T17:17:15;1007.8;;;30;25.4
74427;BME280;62859;53.906;27.430;2023-06-24T17:22:41;1007.8;;;29.9;25.3
74427;BME280;62859;53.906;27.430;2023-06-24T17:27:25;1007.8;;;29.8;25.4
74427;BME280;62859;53.906;27.430;2023-06-24T17:32:41;1007.8;;;29.7;25.6
74427;BME280;62859;53.906;27.430;2023-06-24T17:36:53;1007.8;;;29.6;25.9
74427;BME280;62859;53.906;27.430;2023-06-24T17:41:53;1007.9;;;29.6;26.4
74427;BME280;62859;53.906;27.430;2023-06-24T17:47:41;1007.9;;;29.5;27.1
74427;BME280;62859;53.906;27.430;2023-06-24T17:51:53;1007.9;;;29.4;28.2
74427;BME280;62859;53.906;27.430;2023-06-24T17:56:53;1007.9;;;29.2;29.1
74427;BME280;62859;53.906;27.430;2023-06-24T18:02:25;1008;;;29.2;29.2
74427;BME280;62859;53.906;27.430;2023-06-24T18:07:41;1008;;;29.2;29.6
74427;BME280;62859;53.906;27.430;2023-06-24T18:12:07;1008.1;;;29.1;30.3
74427;BME280;62859;53.906;27.430;2023-06-24T18:17:15;1008.1;;;28.9;30.8
74427;BME280;62859;53.906;27.430;2023-06-24T18:21:55;1008.1;;;28.9;30.9
74427;BME280;62859;53.906;27.430;2023-06-24T18:27:01;1008.2;;;28.7;31.4
74427;BME280;62859;53.906;27.430;2023-06-24T18:31:53;1008.2;;;28.6;31.7
74427;BME280;62859;53.906;27.430;2023-06-24T18:37:07;1008.3;;;28.5;31.8
74427;BME280;62859;53.906;27.430;2023-06-24T18:42:25;1008.3;;;28.4;32.1
74427;BME280;62859;53.906;27.430;2023-06-24T18:47:15;1008.3;;;28.4;32.1
74427;BME280;62859;53.906;27.430;2023-06-24T18:52:15;1008.4;;;28.3;32.4
74427;BME280;62859;53.906;27.430;2023-06-24T18:57:41;1008.4;;;28.2;32.5
74427;BME280;62859;53.906;27.430;2023-06-24T19:02:25;1008.4;;;28.1;32.8
74427;BME280;62859;53.906;27.430;2023-06-24T19:06:53;1008.4;;;28.1;32.9
74427;BME280;62859;53.906;27.430;2023-06-24T19:12:15;1008.4;;;28;32.7
74427;BME280;62859;53.906;27.430;2023-06-24T19:17:13;1008.4;;;27.8;32.8
74427;BME280;62859;53.906;27.430;2023-06-24T19:22:01;1008.3;;;27.7;32.9
74427;BME280;62859;53.906;27.430;2023-06-24T19:27:07;1008.4;;;27.7;33
74427;BME280;62859;53.906;27.430;2023-06-24T19:32:31;1008.3;;;27.7;33
74427;BME280;62859;53.906;27.430;2023-06-24T19:37:25;1008.4;;;27.5;33.2
74427;BME280;62859;53.906;27.430;2023-06-24T19:42:25;1008.4;;;27.5;33.4
74427;BME280;62859;53.906;27.430;2023-06-24T19:46:53;1008.4;;;27.3;33.7
74427;BME280;62859;53.906;27.430;2023-06-24T19:52:07;1008.4;;;27.1;34.1
74427;BME280;62859;53.906;27.430;2023-06-24T19:56:53;1008.4;;;27.1;34.2
74427;BME280;62859;53.906;27.430;2023-06-24T20:02:41;1008.5;;;27;34.6
74427;BME280;62859;53.906;27.430;2023-06-24T20:07:17;1008.5;;;26.9;34.7
74427;BME280;62859;53.906;27.430;2023-06-24T20:12:23;1008.4;;;26.9;34.9
74427;BME280;62859;53.906;27.430;2023-06-24T20:17:41;1008.5;;;26.9;35
74427;BME280;62859;53.906;27.430;2023-06-24T20:22:29;1008.5;;;26.8;35.3
74427;BME280;62859;53.906;27.430;2023-06-24T20:27:01;1008.5;;;26.8;35.6
74427;BME280;62859;53.906;27.430;2023-06-24T20:32:31;1008.5;;;26.7;35.5
74427;BME280;62859;53.906;27.430;2023-06-24T20:37:41;1008.6;;;26.7;35.5
74427;BME280;62859;53.906;27.430;2023-06-24T20:42:17;1008.5;;;26.6;35.4
74427;BME280;62859;53.906;27.430;2023-06-24T20:47:41;1008.5;;;26.5;35.4
74427;BME280;62859;53.906;27.430;2023-06-24T20:52:41;1008.5;;;26.6;35
74427;BME280;62859;53.906;27.430;2023-06-24T20:57:01;1008.5;;;26.5;35
74427;BME280;62859;53.906;27.430;2023-06-24T21:01:53;1008.5;;;26.5;34.9
74427;BME280;62859;53.906;27.430;2023-06-24T21:07:31;1008.5;;;26.4;35
74427;BME280;62859;53.906;27.430;2023-06-24T21:12:25;1008.6;;;26.3;35.1
74427;BME280;62859;53.906;27.430;2023-06-24T21:17:25;1008.6;;;26.2;35.2
74427;BME280;62859;53.906;27.430;2023-06-24T21:22:23;1008.6;;;26.1;35.3
74427;BME280;62859;53.906;27.430;2023-06-24T21:27:41;1008.6;;;26;35.5
74427;BME280;62859;53.906;27.430;2023-06-24T21:32:09;1008.6;;;26;35.6
74427;BME280;62859;53.906;27.430;2023-06-24T21:37:07;1008.6;;;26;35.7
74427;BME280;62859;53.906;27.430;2023-06-24T21:41:53;1008.5;;;25.9;35.8
74427;BME280;62859;53.906;27.430;2023-06-24T21:47:39;1008.5;;;25.8;36
74427;BME280;62859;53.906;27.430;2023-06-24T21:52:23;1008.5;;;25.7;36.1
74427;BME280;62859;53.906;27.430;2023-06-24T21:57:29;1008.5;;;25.7;36.2
74427;BME280;62859;53.906;27.430;2023-06-24T22:02:13;1008.5;;;25.6;36.4
74427;BME280;62859;53.906;27.430;2023-06-24T22:06:53;1008.5;;;25.5;36.4
74427;BME280;62859;53.906;27.430;2023-06-24T22:12:39;1008.5;;;25.5;36.5
74427;BME280;62859;53.906;27.430;2023-06-24T22:17:13;1008.5;;;25.5;36.4
74427;BME280;62859;53.906;27.430;2023-06-24T22:22:07;1008.5;;;25.4;36.6
74427;BME280;62859;53.906;27.430;2023-06-24T22:27:09;1008.5;;;25.4;36.6
74427;BME280;62859;53.906;27.430;2023-06-24T22:32:39;1008.5;;;25.3;36.8
74427;BME280;62859;53.906;27.430;2023-06-24T22:37:07;1008.6;;;25.3;37
74427;BME280;62859;53.906;27.430;2023-06-24T22:42:07;1008.6;;;25.3;37.2
74427;BME280;62859;53.906;27.430;2023-06-24T22:47:35;1008.6;;;25.2;37.6
74427;BME280;62859;53.906;27.430;2023-06-24T22:52:15;1008.6;;;25.2;38
74427;BME280;62859;53.906;27.430;2023-06-24T22:57:05;1008.7;;;25.1;38.5
74427;BME280;62859;53.906;27.430;2023-06-24T23:02:13;1008.6;;;25.1;38.7
74427;BME280;62859;53.906;27.430;2023-06-24T23:07:21;1008.6;;;24.9;39.3
74427;BME280;62859;53.906;27.430;2023-06-24T23:11:59;1008.6;;;24.9;39.6
74427;BME280;62859;53.906;27.430;2023-06-24T23:17:23;1008.6;;;24.8;39.8
74427;BME280;62859;53.906;27.430;2023-06-24T23:22:37;1008.6;;;24.7;39.8
74427;BME280;62859;53.906;27.430;2023-06-24T23:27:21;1008.7;;;24.7;39.6
74427;BME280;62859;53.906;27.430;2023-06-24T23:32:05;1008.7;;;24.6;39.8
74427;BME280;62859;53.906;27.430;2023-06-24T23:37:13;1008.7;;;24.5;40
74427;BME280;62859;53.906;27.430;2023-06-24T23:41:59;1008.8;;;24.5;40.1
74427;BME280;62859;53.906;27.430;2023-06-24T23:46:59;1008.8;;;24.5;40.2
74427;BME280;62859;53.906;27.430;2023-06-24T23:52:13;1008.8;;;24.4;40.5
74427;BME280;62859;53.906;27.430;2023-06-24T23:57:29;1008.8;;;24.4;40.4
